createdAt,value
2022-10-15T00:03:37.895Z,12.1
2022-10-15T00:05:39.715Z,12.2
2022-10-15T00:07:41.500Z,12
2022-10-15T00:13:50.124Z,12
2022-10-15T00:15:51.906Z,12
2022-10-15T00:17:53.685Z,11.9
2022-10-15T00:19:55.478Z,11.9
2022-10-15T00:21:57.334Z,11.7
2022-10-15T00:24:02.303Z,11.8
2022-10-15T00:26:04.098Z,11.7
2022-10-15T00:28:05.865Z,11.9
2022-10-15T00:32:09.457Z,11.8
2022-10-15T00:34:11.266Z,11.8
2022-10-15T00:36:13.035Z,11.8
2022-10-15T00:38:18.071Z,11.6
2022-10-15T00:40:19.868Z,11.6
2022-10-15T00:46:25.243Z,11.6
2022-10-15T00:48:27.013Z,11.6
2022-10-15T00:54:35.576Z,11.7
2022-10-15T00:59:06.000Z,11.8
2022-10-15T01:01:07.824Z,11.9
2022-10-15T01:03:09.556Z,11.8
2022-10-15T01:05:14.558Z,11.8
2022-10-15T01:09:18.132Z,12.1
2022-10-15T01:11:19.921Z,12
2022-10-15T01:13:21.710Z,12
2022-10-15T01:15:23.498Z,12.1
2022-10-15T01:19:30.316Z,12.1
2022-10-15T01:21:32.102Z,12.1
2022-10-15T01:23:33.881Z,12
2022-10-15T01:25:35.687Z,12.1
2022-10-15T01:27:37.482Z,12
2022-10-15T01:29:39.274Z,12
2022-10-15T01:31:41.102Z,12
2022-10-15T01:33:46.098Z,12
2022-10-15T01:35:47.897Z,11.9
2022-10-15T01:37:49.688Z,11.8
2022-10-15T01:39:51.492Z,11.9
2022-10-15T01:41:53.280Z,11.9
2022-10-15T01:43:55.093Z,11.9
2022-10-15T01:45:56.865Z,11.8
2022-10-15T01:48:01.905Z,11.8
2022-10-15T01:50:03.679Z,11.9
2022-10-15T01:52:05.480Z,11.8
2022-10-15T01:55:09.799Z,11.9
2022-10-15T01:59:13.379Z,11.9
2022-10-15T02:01:18.452Z,11.8
2022-10-15T02:03:20.181Z,11.9
2022-10-15T02:05:21.978Z,11.8
2022-10-15T02:07:23.776Z,12.1
2022-10-15T02:09:25.559Z,12
2022-10-15T02:11:27.349Z,11.9
2022-10-15T02:13:29.135Z,11.9
2022-10-15T02:15:34.157Z,11.7
2022-10-15T02:17:35.943Z,11.9
2022-10-15T02:19:37.715Z,11.8
2022-10-15T02:21:39.493Z,11.8
2022-10-15T02:23:41.302Z,11.9
2022-10-15T02:25:43.067Z,11.8
2022-10-15T02:27:44.864Z,11.8
2022-10-15T02:29:49.876Z,11.8
2022-10-15T02:31:51.677Z,11.9
2022-10-15T02:33:53.477Z,11.8
2022-10-15T02:35:55.257Z,11.9
2022-10-15T02:37:57.053Z,11.8
2022-10-15T02:39:58.834Z,11.8
2022-10-15T02:42:00.628Z,11.7
2022-10-15T02:44:05.654Z,11.8
2022-10-15T02:46:07.418Z,11.7
2022-10-15T02:49:11.722Z,11.7
2022-10-15T02:51:13.512Z,11.7
2022-10-15T02:53:15.283Z,11.7
2022-10-15T02:55:17.046Z,11.8
2022-10-15T02:57:22.517Z,11.7
2022-10-15T02:59:23.852Z,11.7
2022-10-15T03:01:25.733Z,11.8
2022-10-15T03:03:27.418Z,11.7
2022-10-15T03:05:29.231Z,11.8
2022-10-15T03:07:30.987Z,11.6
2022-10-15T03:09:32.795Z,11.6
2022-10-15T03:11:37.808Z,11.6
2022-10-15T03:13:39.600Z,11.7
2022-10-15T03:15:41.383Z,11.6
2022-10-15T03:17:43.167Z,11.6
2022-10-15T03:19:44.922Z,11.6
2022-10-15T03:21:46.722Z,11.7
2022-10-15T03:23:48.516Z,11.7
2022-10-15T03:25:53.532Z,11.7
2022-10-15T03:27:55.295Z,11.7
2022-10-15T03:29:57.095Z,11.7
2022-10-15T03:34:00.660Z,11.6
2022-10-15T03:36:02.465Z,11.7
2022-10-15T03:42:11.046Z,11.6
2022-10-15T03:44:12.832Z,11.6
2022-10-15T03:45:15.339Z,11.7
2022-10-15T03:47:17.121Z,11.6
2022-10-15T03:49:18.912Z,11.7
2022-10-15T03:51:24.408Z,11.6
2022-10-15T03:53:27.231Z,11.6
2022-10-15T03:55:29.014Z,11.7
2022-10-15T03:57:30.805Z,11.6
2022-10-15T03:59:32.607Z,11.7
2022-10-15T04:01:34.438Z,11.5
2022-10-15T04:03:36.166Z,11.6
2022-10-15T04:05:37.919Z,11.6
2022-10-15T04:07:43.311Z,11.6
2022-10-15T04:09:44.748Z,11.7
2022-10-15T04:11:46.501Z,11.7
2022-10-15T04:13:48.270Z,11.7
2022-10-15T04:15:50.107Z,11.6
2022-10-15T04:19:53.803Z,11.7
2022-10-15T04:21:58.689Z,11.6
2022-10-15T04:24:00.489Z,11.7
2022-10-15T04:26:02.281Z,11.7
2022-10-15T04:28:04.045Z,11.7
2022-10-15T04:30:05.845Z,11.6
2022-10-15T04:32:07.610Z,11.6
2022-10-15T04:34:09.403Z,11.7
2022-10-15T04:36:14.506Z,11.6
2022-10-15T04:38:16.203Z,11.6
2022-10-15T04:40:17.983Z,11.6
2022-10-15T04:44:48.449Z,11.6
2022-10-15T04:46:50.215Z,11.5
2022-10-15T04:48:55.221Z,11.6
2022-10-15T04:50:56.999Z,11.5
2022-10-15T04:52:58.792Z,11.5
2022-10-15T04:57:02.364Z,11.5
2022-10-15T04:59:04.109Z,11.4
2022-10-15T05:01:05.899Z,11.3
2022-10-15T05:03:10.957Z,11.4
2022-10-15T05:05:12.701Z,11.4
2022-10-15T05:07:14.497Z,11.5
2022-10-15T05:09:16.291Z,11.5
2022-10-15T05:11:18.053Z,11.6
2022-10-15T05:13:19.837Z,11.7
2022-10-15T05:15:21.615Z,11.6
2022-10-15T05:17:26.896Z,11.8
2022-10-15T05:19:28.450Z,11.7
2022-10-15T05:21:30.250Z,11.7
2022-10-15T05:23:32.011Z,11.8
2022-10-15T05:25:33.802Z,11.8
2022-10-15T05:27:35.586Z,11.7
2022-10-15T05:29:37.396Z,11.7
2022-10-15T05:31:42.427Z,11.8
2022-10-15T05:33:44.194Z,12
2022-10-15T05:35:45.983Z,12
2022-10-15T05:38:50.268Z,12
2022-10-15T05:44:58.904Z,12.6
2022-10-15T05:47:00.891Z,12.6
2022-10-15T05:49:02.477Z,12.6
2022-10-15T05:51:04.260Z,12.7
2022-10-15T05:53:06.051Z,12.6
2022-10-15T05:55:07.854Z,12.6
2022-10-15T05:57:09.790Z,12.8
2022-10-15T05:59:14.638Z,12.9
2022-10-15T06:01:16.435Z,13
2022-10-15T06:03:18.234Z,12.9
2022-10-15T06:05:20.056Z,12.9
2022-10-15T06:07:21.999Z,12.9
2022-10-15T06:09:23.614Z,13
2022-10-15T06:11:25.434Z,13
2022-10-15T06:13:30.431Z,13
2022-10-15T06:17:34.018Z,13.1
2022-10-15T06:19:35.840Z,13.1
2022-10-15T06:21:37.620Z,13.2
2022-10-15T06:23:39.440Z,13.1
2022-10-15T06:25:41.215Z,13.2
2022-10-15T06:27:46.394Z,13.3
2022-10-15T06:29:48.075Z,13.4
2022-10-15T06:31:49.874Z,13.3
2022-10-15T06:32:52.386Z,13.4
2022-10-15T06:34:54.189Z,13.2
2022-10-15T06:36:55.967Z,13.3
2022-10-15T06:38:57.770Z,13.4
2022-10-15T06:41:02.806Z,13.4
2022-10-15T06:43:04.630Z,13.4
2022-10-15T06:45:06.401Z,13.3
2022-10-15T06:47:08.237Z,13.4
2022-10-15T06:49:10.035Z,13.4
2022-10-15T06:51:11.825Z,13.4
2022-10-15T06:53:13.774Z,13.3
2022-10-15T06:55:18.686Z,13.5
2022-10-15T06:57:20.551Z,13.4
2022-10-15T06:59:22.306Z,13.5
2022-10-15T07:01:24.107Z,13.5
2022-10-15T07:03:25.925Z,13.5
2022-10-15T07:05:27.719Z,13.6
2022-10-15T07:07:29.523Z,13.4
2022-10-15T07:09:34.573Z,13.5
2022-10-15T07:11:36.374Z,13.4
2022-10-15T07:13:38.193Z,13.5
2022-10-15T07:17:41.831Z,13.5
2022-10-15T07:19:43.676Z,13.6
2022-10-15T07:21:45.487Z,13.4
2022-10-15T07:23:50.555Z,13.5
2022-10-15T07:25:52.340Z,13.6
2022-10-15T07:27:54.167Z,13.6
2022-10-15T07:28:56.760Z,13.7
2022-10-15T07:30:58.486Z,13.6
2022-10-15T07:33:00.289Z,13.5
2022-10-15T07:35:02.115Z,13.5
2022-10-15T07:37:07.192Z,13.6
2022-10-15T07:39:08.985Z,13.7
2022-10-15T07:41:10.800Z,13.6
2022-10-15T07:43:12.618Z,13.6
2022-10-15T07:45:14.416Z,13.7
2022-10-15T07:47:16.237Z,13.6
2022-10-15T07:49:18.063Z,13.6
2022-10-15T07:55:26.723Z,13.7
2022-10-15T07:57:28.537Z,13.9
2022-10-15T07:59:30.365Z,13.8
2022-10-15T08:01:32.196Z,13.8
2022-10-15T08:03:33.995Z,13.9
2022-10-15T08:05:39.051Z,13.9
2022-10-15T08:07:40.868Z,13.9
2022-10-15T08:09:42.700Z,14.1
2022-10-15T08:13:46.318Z,13.9
2022-10-15T08:15:48.143Z,14
2022-10-15T08:17:49.942Z,14.2
2022-10-15T08:19:55.004Z,14
2022-10-15T08:21:56.818Z,14
2022-10-15T08:23:58.616Z,14.1
2022-10-15T08:26:27.312Z,14.2
2022-10-15T08:28:29.168Z,14.3
2022-10-15T08:30:30.942Z,14.2
2022-10-15T08:32:36.005Z,14.4
2022-10-15T08:34:37.822Z,14.3
2022-10-15T08:36:39.652Z,14.2
2022-10-15T08:38:41.448Z,14.2
2022-10-15T08:40:43.264Z,14.3
2022-10-15T08:42:45.079Z,14.2
2022-10-15T08:44:46.888Z,14.1
2022-10-15T08:46:51.955Z,14.4
2022-10-15T08:48:53.756Z,14.7
2022-10-15T08:50:55.741Z,14.9
2022-10-15T08:52:57.384Z,15.4
2022-10-15T08:54:59.220Z,15.6
2022-10-15T08:57:01.035Z,16.3
2022-10-15T08:59:02.840Z,16.9
2022-10-15T09:01:07.910Z,18
2022-10-15T09:03:09.748Z,17.9
2022-10-15T09:05:11.551Z,17.4
2022-10-15T09:07:13.383Z,17
2022-10-15T09:09:15.205Z,16.9
2022-10-15T09:11:17.037Z,17
2022-10-15T09:13:18.848Z,17.6
2022-10-15T09:15:26.977Z,17
2022-10-15T09:19:27.602Z,16.7
2022-10-15T09:20:30.116Z,16.3
2022-10-15T09:22:31.954Z,16.2
2022-10-15T09:24:33.792Z,16.2
2022-10-15T09:26:35.613Z,16.1
2022-10-15T09:28:40.750Z,16
2022-10-15T09:30:42.510Z,16.1
2022-10-15T09:34:46.183Z,15.9
2022-10-15T09:36:48.012Z,16.4
2022-10-15T09:38:49.828Z,16.7
2022-10-15T09:40:51.668Z,17.7
2022-10-15T09:42:58.323Z,17.6
2022-10-15T09:45:00.111Z,17.2
2022-10-15T09:47:01.944Z,17
2022-10-15T09:49:03.785Z,16.9
2022-10-15T09:53:07.423Z,17.6
2022-10-15T09:55:09.247Z,17.1
2022-10-15T09:57:14.351Z,17.4
2022-10-15T09:59:16.169Z,17.7
2022-10-15T10:01:17.993Z,18.5
2022-10-15T10:09:25.310Z,17.1
2022-10-15T10:11:30.385Z,16.8
2022-10-15T10:13:32.229Z,16.8
2022-10-15T10:15:34.054Z,16.7
2022-10-15T10:16:36.602Z,17
2022-10-15T10:18:38.437Z,17.2
2022-10-15T10:20:40.238Z,17
2022-10-15T10:22:42.069Z,16.8
2022-10-15T10:24:47.182Z,16.6
2022-10-15T10:26:48.985Z,16.4
2022-10-15T10:28:53.708Z,16.4
2022-10-15T10:30:52.643Z,16.4
2022-10-15T10:32:54.499Z,16.4
2022-10-15T10:34:56.325Z,16.4
2022-10-15T10:36:58.153Z,16.4
2022-10-15T10:39:03.243Z,16.4
2022-10-15T10:41:05.061Z,16.5
2022-10-15T10:43:06.888Z,16.5
2022-10-15T10:45:08.735Z,16.3
2022-10-15T10:47:10.569Z,16.3
2022-10-15T10:49:12.401Z,16.4
2022-10-15T10:51:18.321Z,16.4
2022-10-15T10:53:19.318Z,16.3
2022-10-15T10:55:21.117Z,16.2
2022-10-15T10:57:23.412Z,16.1
2022-10-15T10:59:24.805Z,16.2
2022-10-15T11:01:26.623Z,15.9
2022-10-15T11:03:28.597Z,15.9
2022-10-15T11:05:30.338Z,15.9
2022-10-15T11:07:35.397Z,15.8
2022-10-15T11:09:37.222Z,15.8
2022-10-15T11:11:39.059Z,15.8
2022-10-15T11:14:43.432Z,15.6
2022-10-15T11:16:45.242Z,15.7
2022-10-15T11:18:47.206Z,15.5
2022-10-15T11:20:58.653Z,15.5
2022-10-15T11:22:53.988Z,15.5
2022-10-15T11:25:06.599Z,15.4
2022-10-15T11:27:10.500Z,15.5
2022-10-15T11:28:59.606Z,15.4
2022-10-15T11:31:01.291Z,15.3
2022-10-15T11:33:08.212Z,15.4
2022-10-15T11:35:08.193Z,15.4
2022-10-15T11:37:10.031Z,15.4
2022-10-15T11:39:11.868Z,15.5
2022-10-15T11:41:13.677Z,15.4
2022-10-15T11:43:15.490Z,15.6
2022-10-15T11:45:17.309Z,15.6
2022-10-15T11:47:19.161Z,15.6
2022-10-15T11:49:24.306Z,15.7
2022-10-15T11:51:26.032Z,15.8
2022-10-15T11:53:27.869Z,15.7
2022-10-15T11:55:29.676Z,15.7
2022-10-15T11:57:31.517Z,15.7
2022-10-15T11:59:33.334Z,15.7
2022-10-15T12:01:35.158Z,15.8
2022-10-15T12:03:40.245Z,15.8
2022-10-15T12:05:42.053Z,15.8
2022-10-15T12:07:43.903Z,15.9
2022-10-15T12:10:12.538Z,15.9
2022-10-15T12:12:14.374Z,15.9
2022-10-15T12:14:16.193Z,15.8
2022-10-15T12:16:21.263Z,15.7
2022-10-15T12:18:23.100Z,15.9
2022-10-15T12:20:24.926Z,16
2022-10-15T12:22:31.111Z,16
2022-10-15T12:24:28.558Z,15.8
2022-10-15T12:26:30.371Z,15.9
2022-10-15T12:28:32.257Z,16
2022-10-15T12:30:37.287Z,16.2
2022-10-15T12:32:39.102Z,16.1
2022-10-15T12:34:40.943Z,16.2
2022-10-15T12:36:42.749Z,16.2
2022-10-15T12:38:44.578Z,16.1
2022-10-15T12:42:48.238Z,16.3
2022-10-15T12:44:53.314Z,16.1
2022-10-15T12:46:55.155Z,16.2
2022-10-15T12:48:56.967Z,16.2
2022-10-15T12:53:00.624Z,16.3
2022-10-15T12:55:02.947Z,16.2
2022-10-15T12:57:04.302Z,16.4
2022-10-15T12:59:09.365Z,16.2
2022-10-15T13:01:11.285Z,16.3
2022-10-15T13:03:13.018Z,16.2
2022-10-15T13:04:15.549Z,16.3
2022-10-15T13:06:17.386Z,16.4
2022-10-15T13:08:19.216Z,16.3
2022-10-15T13:10:21.030Z,16.3
2022-10-15T13:12:26.616Z,16.5
2022-10-15T13:14:27.929Z,16.5
2022-10-15T13:16:29.761Z,16.6
2022-10-15T13:18:31.585Z,16.7
2022-10-15T13:20:33.435Z,16.8
2022-10-15T13:22:35.265Z,16.6
2022-10-15T13:24:37.082Z,16.7
2022-10-15T13:26:42.197Z,16.8
2022-10-15T13:28:44.099Z,16.9
2022-10-15T13:30:45.822Z,17.1
2022-10-15T13:34:49.496Z,17
2022-10-15T13:36:51.337Z,17
2022-10-15T13:38:53.145Z,16.8
2022-10-15T13:40:58.234Z,17
2022-10-15T13:45:01.912Z,17
2022-10-15T13:47:03.719Z,16.8
2022-10-15T13:49:05.567Z,16.9
2022-10-15T13:51:07.385Z,16.8
2022-10-15T13:59:17.966Z,16.8
2022-10-15T14:00:20.495Z,17
2022-10-15T14:02:22.698Z,17
2022-10-15T14:04:24.174Z,17.1
2022-10-15T14:06:25.995Z,17.1
2022-10-15T14:08:31.083Z,17.3
2022-10-15T14:10:32.919Z,17.1
2022-10-15T14:12:34.755Z,17.2
2022-10-15T14:14:36.574Z,17.2
2022-10-15T14:16:38.403Z,17.2
2022-10-15T14:18:40.242Z,17.1
2022-10-15T14:20:42.055Z,17.1
2022-10-15T14:22:47.146Z,17.1
2022-10-15T14:24:48.962Z,17.2
2022-10-15T14:26:50.812Z,17
2022-10-15T14:28:52.722Z,17.1
2022-10-15T14:30:54.471Z,17.1
2022-10-15T14:32:56.296Z,17.3
2022-10-15T14:34:58.131Z,17.2
2022-10-15T14:37:03.262Z,17.2
2022-10-15T14:39:05.114Z,17.2
2022-10-15T14:41:07.462Z,17.2
2022-10-15T14:43:08.742Z,17.3
2022-10-15T14:45:10.575Z,17.2
2022-10-15T14:47:12.388Z,17.2
2022-10-15T14:49:14.354Z,17.1
2022-10-15T14:51:19.305Z,17.3
2022-10-15T14:53:21.141Z,17.2
2022-10-15T14:55:22.969Z,17.1
2022-10-15T14:56:25.505Z,17.4
2022-10-15T14:58:27.332Z,17.2
2022-10-15T15:00:29.175Z,17.3
2022-10-15T15:02:30.991Z,17.3
2022-10-15T15:04:36.068Z,17.3
2022-10-15T15:06:37.917Z,17.1
2022-10-15T15:08:39.722Z,17.2
2022-10-15T15:10:41.617Z,17.1
2022-10-15T15:12:43.395Z,17.2
2022-10-15T15:14:45.341Z,17.1
2022-10-15T15:16:47.058Z,17.2
2022-10-15T15:18:52.141Z,17.1
2022-10-15T15:20:53.981Z,17
2022-10-15T15:22:55.810Z,17
2022-10-15T15:24:57.656Z,17.1
2022-10-15T15:26:59.457Z,17.1
2022-10-15T15:29:01.475Z,17.1
2022-10-15T15:31:03.129Z,17.2
2022-10-15T15:33:08.209Z,16.9
2022-10-15T15:35:11.616Z,16.9
2022-10-15T15:37:13.397Z,17
2022-10-15T15:39:15.213Z,16.9
2022-10-15T15:41:17.044Z,16.8
2022-10-15T15:43:18.888Z,16.7
2022-10-15T15:45:20.724Z,16.7
2022-10-15T15:47:25.925Z,16.6
2022-10-15T15:49:27.648Z,16.5
2022-10-15T15:53:58.149Z,16.5
2022-10-15T15:55:59.962Z,16.4
2022-10-15T15:58:01.807Z,16.4
2022-10-15T16:06:12.376Z,16.3
2022-10-15T16:08:14.216Z,16.3
2022-10-15T16:10:16.037Z,16.2
2022-10-15T16:12:17.858Z,16.1
2022-10-15T16:14:22.913Z,15.9
2022-10-15T16:16:24.898Z,15.9
2022-10-15T16:18:26.579Z,15.8
2022-10-15T16:20:28.407Z,15.9
2022-10-15T16:22:30.247Z,15.7
2022-10-15T16:26:33.905Z,15.6
2022-10-15T16:28:39.024Z,15.6
2022-10-15T16:30:40.777Z,15.6
2022-10-15T16:32:42.623Z,15.5
2022-10-15T16:34:44.443Z,15.3
2022-10-15T16:36:46.288Z,15.3
2022-10-15T16:38:48.102Z,15.2
2022-10-15T16:40:49.911Z,15.1
2022-10-15T16:42:55.002Z,15.1
2022-10-15T16:44:56.809Z,15
2022-10-15T16:46:58.720Z,15
2022-10-15T16:50:03.149Z,14.9
2022-10-15T16:52:04.834Z,14.9
2022-10-15T16:54:06.629Z,14.9
2022-10-15T16:56:11.709Z,14.8
2022-10-15T16:58:13.523Z,14.9
2022-10-15T17:00:15.353Z,14.6
2022-10-15T17:02:17.162Z,14.5
2022-10-15T17:04:18.963Z,14.6
2022-10-15T17:06:20.811Z,14.4
2022-10-15T17:08:22.950Z,14.5
2022-10-15T17:10:27.659Z,14.4
2022-10-15T17:12:29.486Z,14.4
2022-10-15T17:16:33.142Z,14.4
2022-10-15T17:18:34.953Z,14.2
2022-10-15T17:20:36.762Z,14.2
2022-10-15T17:22:38.595Z,14.1
2022-10-15T17:24:43.654Z,14.2
2022-10-15T17:26:45.470Z,14.1
2022-10-15T17:28:47.275Z,14.3
2022-10-15T17:30:49.116Z,14.1
2022-10-15T17:32:50.934Z,14.2
2022-10-15T17:34:52.753Z,14.1
2022-10-15T17:36:54.567Z,14.1
2022-10-15T17:38:59.654Z,14
2022-10-15T17:41:01.508Z,14.2
2022-10-15T17:43:03.282Z,14.2
2022-10-15T17:44:05.827Z,13.9
2022-10-15T17:46:07.627Z,14
2022-10-15T17:48:09.599Z,14.1
2022-10-15T17:50:11.269Z,14
2022-10-15T17:52:16.348Z,13.9
2022-10-15T17:54:18.175Z,14
2022-10-15T17:56:19.983Z,14
2022-10-15T17:58:21.816Z,13.9
2022-10-15T18:00:23.859Z,13.9
2022-10-15T18:02:25.460Z,13.9
2022-10-15T18:04:27.282Z,13.9
2022-10-15T18:06:32.320Z,14.1
2022-10-15T18:08:34.120Z,14
2022-10-15T18:10:35.949Z,14.1
2022-10-15T18:12:37.779Z,14.1
2022-10-15T18:14:39.577Z,14
2022-10-15T18:16:41.406Z,14.1
2022-10-15T18:18:43.237Z,14
2022-10-15T18:20:48.298Z,13.9
2022-10-15T18:22:50.107Z,14
2022-10-15T18:24:51.940Z,13.9
2022-10-15T18:26:53.776Z,14
2022-10-15T18:28:55.613Z,13.8
2022-10-15T18:30:57.388Z,13.8
2022-10-15T18:32:59.217Z,13.8
2022-10-15T18:35:04.279Z,13.8
2022-10-15T18:37:06.115Z,13.8
2022-10-15T18:39:07.911Z,13.7
2022-10-15T18:40:10.438Z,13.6
2022-10-15T18:42:12.269Z,13.5
2022-10-15T18:44:14.087Z,13.5
2022-10-15T18:46:15.888Z,13.7
2022-10-15T18:48:20.976Z,13.5
2022-10-15T18:50:22.782Z,13.5
2022-10-15T18:54:26.410Z,13.5
2022-10-15T18:56:28.225Z,13.6
2022-10-15T18:58:30.052Z,13.4
2022-10-15T19:00:31.877Z,13.4
2022-10-15T19:02:36.913Z,13.4
2022-10-15T19:04:38.709Z,13.4
2022-10-15T19:06:40.528Z,13.3
2022-10-15T19:08:42.406Z,13.4
2022-10-15T19:10:44.158Z,13.2
2022-10-15T19:12:45.970Z,13.3
2022-10-15T19:14:47.807Z,13.2
2022-10-15T19:16:52.844Z,13.3
2022-10-15T19:18:54.660Z,13.3
2022-10-15T19:20:56.466Z,13.4
2022-10-15T19:22:58.287Z,13.5
2022-10-15T19:25:00.126Z,13.4
2022-10-15T19:27:01.953Z,13.4
2022-10-15T19:29:03.730Z,13.4
2022-10-15T19:31:08.799Z,13.4
2022-10-15T19:33:10.620Z,13.2
2022-10-15T19:35:12.429Z,13.4
2022-10-15T19:37:41.133Z,13.4
2022-10-15T19:39:42.945Z,13.3
2022-10-15T19:41:44.777Z,13.4
2022-10-15T19:43:49.851Z,13.3
2022-10-15T19:45:51.638Z,13.4
2022-10-15T19:47:53.462Z,13.3
2022-10-15T19:49:55.282Z,13.5
2022-10-15T19:51:57.096Z,13.5
2022-10-15T19:53:58.903Z,13.4
2022-10-15T19:58:05.761Z,13.4
2022-10-15T20:00:07.578Z,13.6
2022-10-15T20:06:13.019Z,13.7
2022-10-15T20:10:16.650Z,14
2022-10-15T20:16:26.488Z,14.2
2022-10-15T20:18:27.149Z,14.3
2022-10-15T20:20:28.959Z,14.4
2022-10-15T20:22:30.786Z,14.5
2022-10-15T20:24:32.593Z,14.5
2022-10-15T20:26:37.651Z,14.4
2022-10-15T20:28:39.498Z,14.5
2022-10-15T20:30:41.353Z,14.5
2022-10-15T20:33:45.629Z,14.5
2022-10-15T20:35:47.457Z,14.6
2022-10-15T20:37:49.248Z,14.6
2022-10-15T20:41:56.148Z,14.8
2022-10-15T20:52:05.259Z,14.6
2022-10-15T20:54:10.314Z,14.7
2022-10-15T21:00:15.777Z,14.6
2022-10-15T21:02:17.594Z,14.6
2022-10-15T21:08:26.283Z,14.6
2022-10-15T21:16:33.579Z,14.7
2022-10-15T21:18:35.372Z,14.6
2022-10-15T21:20:37.213Z,14.7
2022-10-15T21:22:42.269Z,14.5
2022-10-15T21:24:44.106Z,14.5
2022-10-15T21:26:47.473Z,14.5
2022-10-15T21:27:49.957Z,14.4
2022-10-15T21:31:53.609Z,14.6
2022-10-15T21:33:55.444Z,14.5
2022-10-15T21:36:00.533Z,14.4
2022-10-15T21:42:05.960Z,14.3
2022-10-15T21:44:07.777Z,14.2
2022-10-15T21:46:09.622Z,14.3
2022-10-15T21:48:11.430Z,14.3
2022-10-15T21:50:16.493Z,14.1
2022-10-15T21:52:18.313Z,14.1
2022-10-15T21:54:20.142Z,14.1
2022-10-15T21:56:21.955Z,14
2022-10-15T22:00:25.610Z,14
2022-10-15T22:02:27.416Z,14.1
2022-10-15T22:04:32.476Z,13.9
2022-10-15T22:06:34.290Z,13.9
2022-10-15T22:08:36.111Z,14.2
2022-10-15T22:10:37.930Z,14
2022-10-15T22:12:39.734Z,14.1
2022-10-15T22:14:41.569Z,14
2022-10-15T22:16:43.364Z,14
2022-10-15T22:18:48.442Z,14.2
2022-10-15T22:20:50.271Z,14.1
2022-10-15T22:22:52.059Z,14
2022-10-15T22:25:56.416Z,14.1
2022-10-15T22:27:58.236Z,14.2
2022-10-15T22:32:05.144Z,14.4
2022-10-15T22:34:06.962Z,14.4
2022-10-15T22:36:08.751Z,14.3
2022-10-15T22:38:10.580Z,14.5
2022-10-15T22:40:12.393Z,14.3
2022-10-15T22:42:14.208Z,14.4
2022-10-15T22:44:16.035Z,14.4
2022-10-15T22:46:21.109Z,14.3
2022-10-15T22:48:22.920Z,14.5
2022-10-15T22:50:24.747Z,14.3
2022-10-15T22:52:26.868Z,14.4
2022-10-15T22:54:28.369Z,14.4
2022-10-15T22:56:30.186Z,14.4
2022-10-15T22:58:32.017Z,14.4
2022-10-15T23:00:37.080Z,14.2
2022-10-15T23:02:38.945Z,14.4
2022-10-15T23:04:40.728Z,14.3
2022-10-15T23:06:42.544Z,14.3
2022-10-15T23:08:44.363Z,14.4
2022-10-15T23:10:46.218Z,14.3
2022-10-15T23:12:48.018Z,14.2
2022-10-15T23:14:53.099Z,14.2
2022-10-15T23:16:54.922Z,14.3
2022-10-15T23:18:56.740Z,14.2
2022-10-15T23:21:25.441Z,14.2
2022-10-15T23:23:27.225Z,14.3
2022-10-15T23:25:29.053Z,14.3
2022-10-15T23:27:34.133Z,14.3
2022-10-15T23:29:35.948Z,14.2
2022-10-15T23:31:37.755Z,14.3
2022-10-15T23:33:39.569Z,14.3
2022-10-15T23:35:41.394Z,14.3
2022-10-15T23:37:43.223Z,14.2
2022-10-15T23:39:45.051Z,14.2
2022-10-15T23:41:50.118Z,14.1
2022-10-15T23:45:53.752Z,14
2022-10-15T23:47:55.561Z,13.8
2022-10-15T23:49:57.372Z,14.1
2022-10-15T23:51:59.192Z,13.8
2022-10-15T23:54:01.027Z,13.8
2022-10-15T23:56:06.092Z,13.9
